Airfield :
LOGIN :

Register | Disclaimer

   EN    FR    IT 

 










Legend :    VFR   Marginal VFR   IFR   Intensive IFR   Very Intensive IFR
Visi :
Ceiling :
>= 8 km
>= 3000ft
5 to 8 km
1000 to 3000 ft
1500m to 5 km
500 to 1000 ft
800 to 1500m
200 to 500 ft
< 800m
< 200 ft
Symbols :   Thunderstorms  Fog  Heavy snow  Heavy precipitations  Wind > 20 kt
SIGMETs :     Misc.  Thunderstorms  Icing  Turbulence  Mountain Waves  Volcanic Ashes







- Airport Elevation : 1000 ft
- IATA code : PEV


LHPP - Pécs Pogany

CURRENT METAR :
  • 191315Z 28005KT 4000 RA BKN005 OVC023 05/04 Q1009 NOSIG

EXPIRED METARs :
  • 191314Z 29005KT 4000 RA BKN005 OVC023 05/04 Q1010
  • 191245Z 03005KT 4000 RA SCT005 OVC026 05/04 Q1009 NOSIG
  • 191237Z 03006KT 4000 RA SCT005 OVC026 05/04 Q1010
  • 191215Z 03006KT 6000 -RA SCT005 SCT026 OVC083 05/04 Q1009 NOSIG
  • 191145Z 12003KT 6000 -RA FEW005 SCT033 OVC083 05/04 Q1008 NOSIG
  • 191115Z 11005KT 6000 -RA FEW005 SCT033 OVC083 05/04 Q1009 NOSIG
  • 191045Z 05003KT 6000 -RA FEW006 SCT033 OVC083 05/04 Q1009 NOSIG

TAF TAF LHPP
Valid from the 19 at 12:00 until the 19 at 21:00 UTC


191115Z 1912/1921 VRB02KT 6000 -RA FEW005 SCT010 OVC080
TEMPO 1912/1918 3000 RA BKN005 OVC030
BECMG 1913/1916 30007KT
BECMG 1919/1921 23005KT
No reported NOTAMs for that airfield.



MET'MAP, your aeronautical weather chart ! - Copyright ORBIFLY December 2007 - Disclaimer

ORBIFLY MET'MAP TEAM :

Programming & Development : Alexandra Zaïnal
Concept & Development : Baudouin d'Aumeries
Co-Development & Prog : Marc-Olivier Méhu
Technical & hardware support : Manuel Goepfert

Contact : metmap@orbifly.com




SOURCES & CREDITS :

   NOAA